createdAt,value
2023-04-24T00:01:08.801Z,15.70
2023-04-24T00:03:35.979Z,15.70
2023-04-24T00:06:03.724Z,15.80
2023-04-24T00:08:30.724Z,15.70
2023-04-24T00:10:57.644Z,15.70
2023-04-24T00:13:24.479Z,15.70
2023-04-24T00:15:51.509Z,15.70
2023-04-24T00:18:18.489Z,15.60
2023-04-24T00:20:45.423Z,15.60
2023-04-24T00:23:12.105Z,15.80
2023-04-24T00:25:39.025Z,15.80
2023-04-24T00:28:05.737Z,15.80
2023-04-24T00:30:32.978Z,15.90
2023-04-24T00:32:59.840Z,15.80
2023-04-24T00:35:26.542Z,15.80
2023-04-24T00:37:53.297Z,15.80
2023-04-24T00:40:20.083Z,15.90
2023-04-24T00:42:46.799Z,15.90
2023-04-24T00:45:14.444Z,15.80
2023-04-24T00:47:42.695Z,15.80
2023-04-24T00:50:10.137Z,15.70
2023-04-24T00:52:38.391Z,15.70
2023-04-24T00:55:06.615Z,15.80
2023-04-24T00:57:33.688Z,15.70
2023-04-24T01:00:00.474Z,15.70
2023-04-24T01:02:27.400Z,15.60
2023-04-24T01:04:54.436Z,15.50
2023-04-24T01:07:22.052Z,15.60
2023-04-24T01:09:52.317Z,15.50
2023-04-24T01:12:19.960Z,15.60
2023-04-24T01:14:47.271Z,15.50
2023-04-24T01:17:14.128Z,15.60
2023-04-24T01:19:41.566Z,15.60
2023-04-24T01:22:13.905Z,15.60
2023-04-24T01:24:41.389Z,15.50
2023-04-24T01:27:09.740Z,15.40
2023-04-24T01:29:37.340Z,15.50
2023-04-24T01:32:05.794Z,15.50
2023-04-24T01:34:32.980Z,15.40
2023-04-24T01:36:59.949Z,15.40
2023-04-24T01:39:29.318Z,15.50
2023-04-24T01:41:56.982Z,15.50
2023-04-24T01:44:24.617Z,15.40
2023-04-24T01:46:51.633Z,15.40
2023-04-24T01:49:18.884Z,15.40
2023-04-24T01:51:45.934Z,15.40
2023-04-24T01:54:13.261Z,15.40
2023-04-24T01:56:44.307Z,15.50
2023-04-24T01:59:12.563Z,15.30
2023-04-24T02:01:40.085Z,15.40
2023-04-24T02:04:08.752Z,15.40
2023-04-24T02:06:36.218Z,15.50
2023-04-24T02:09:04.482Z,15.50
2023-04-24T02:11:31.511Z,15.30
2023-04-24T02:13:58.779Z,15.30
2023-04-24T02:16:25.916Z,15.30
2023-04-24T02:18:52.700Z,15.20
2023-04-24T02:21:19.502Z,15.30
2023-04-24T02:23:46.251Z,15.30
2023-04-24T02:26:12.995Z,15.30
2023-04-24T02:28:39.940Z,15.40
2023-04-24T02:31:07.218Z,15.40
2023-04-24T02:33:34.346Z,15.40
2023-04-24T02:36:01.234Z,15.40
2023-04-24T02:38:28.081Z,15.40
2023-04-24T02:40:54.794Z,15.40
2023-04-24T02:43:21.925Z,15.30
2023-04-24T02:45:48.801Z,15.30
2023-04-24T02:48:16.074Z,15.30
2023-04-24T02:50:42.781Z,15.20
2023-04-24T02:53:09.648Z,15.20
2023-04-24T02:55:37.137Z,15.10
2023-04-24T02:58:04.003Z,15.10
2023-04-24T03:00:31.103Z,15.10
2023-04-24T03:02:58.077Z,15.00
2023-04-24T03:05:24.946Z,15.00
2023-04-24T03:07:53.662Z,14.90
2023-04-24T03:10:20.688Z,14.80
2023-04-24T03:12:47.745Z,14.90
2023-04-24T03:15:14.503Z,14.70
2023-04-24T03:17:41.160Z,14.70
2023-04-24T03:20:10.162Z,14.50
2023-04-24T03:22:36.947Z,14.50
2023-04-24T03:25:04.140Z,14.40
2023-04-24T03:27:31.674Z,14.40
2023-04-24T03:29:58.479Z,14.60
2023-04-24T03:32:25.220Z,14.70
2023-04-24T03:34:51.989Z,14.70
2023-04-24T03:37:18.747Z,14.80
2023-04-24T03:39:45.682Z,14.80
2023-04-24T03:42:12.536Z,14.80
2023-04-24T03:44:39.357Z,14.80
2023-04-24T03:47:06.143Z,14.70
2023-04-24T03:49:32.849Z,14.70
2023-04-24T03:51:59.551Z,14.70
2023-04-24T03:54:27.138Z,14.60
2023-04-24T03:56:54.310Z,14.60
2023-04-24T03:59:21.012Z,14.40
2023-04-24T04:01:47.877Z,14.40
2023-04-24T04:04:14.835Z,14.30
2023-04-24T04:06:41.813Z,14.30
2023-04-24T04:09:09.559Z,14.10
2023-04-24T04:11:36.519Z,14.10
2023-04-24T04:14:03.750Z,14.20
2023-04-24T04:16:30.929Z,14.10
2023-04-24T04:18:58.073Z,14.20
2023-04-24T04:21:25.037Z,14.10
2023-04-24T04:23:51.732Z,14.00
2023-04-24T04:26:20.119Z,14.10
2023-04-24T04:28:48.663Z,14.10
2023-04-24T04:31:15.376Z,14.20
2023-04-24T04:33:42.286Z,14.10
2023-04-24T04:36:09.754Z,13.90
2023-04-24T04:38:36.526Z,14.00
2023-04-24T04:41:03.939Z,14.00
2023-04-24T04:43:31.876Z,13.90
2023-04-24T04:45:59.210Z,13.80
2023-04-24T04:48:26.151Z,13.90
2023-04-24T04:50:52.871Z,13.90
2023-04-24T04:53:19.528Z,14.00
2023-04-24T04:55:47.439Z,13.90
2023-04-24T04:58:14.108Z,14.00
2023-04-24T05:00:40.887Z,14.00
2023-04-24T05:03:20.202Z,14.00
2023-04-24T05:05:48.308Z,14.00
2023-04-24T05:10:44.936Z,14.20
2023-04-24T05:13:13.943Z,14.20
2023-04-24T05:15:41.028Z,14.20
2023-04-24T05:18:07.871Z,14.20
2023-04-24T05:20:34.788Z,14.10
2023-04-24T05:23:01.582Z,14.20
2023-04-24T05:25:28.414Z,14.20
2023-04-24T05:27:55.123Z,14.20
2023-04-24T05:30:21.941Z,14.20
2023-04-24T05:32:48.807Z,14.20
2023-04-24T05:35:15.736Z,14.20
2023-04-24T05:37:42.700Z,14.20
2023-04-24T05:40:10.095Z,14.10
2023-04-24T05:42:36.810Z,14.20
2023-04-24T05:45:04.631Z,14.20
2023-04-24T05:47:31.376Z,14.20
2023-04-24T05:49:58.105Z,14.20
2023-04-24T05:52:24.869Z,14.20
2023-04-24T05:54:51.700Z,14.20
2023-04-24T05:57:18.385Z,14.30
2023-04-24T05:59:45.151Z,14.40
2023-04-24T06:02:12.040Z,14.30
2023-04-24T06:04:39.052Z,14.40
2023-04-24T06:07:06.284Z,14.60
2023-04-24T06:09:32.916Z,14.60
2023-04-24T06:12:00.927Z,14.60
2023-04-24T06:14:27.754Z,14.70
2023-04-24T06:16:54.829Z,14.80
2023-04-24T06:19:21.565Z,14.90
2023-04-24T06:21:48.402Z,14.90
2023-04-24T06:24:17.030Z,15.00
2023-04-24T06:26:43.936Z,15.10
2023-04-24T06:29:10.852Z,15.10
2023-04-24T06:31:38.075Z,15.10
2023-04-24T06:34:05.226Z,15.10
2023-04-24T06:36:32.324Z,15.10
2023-04-24T06:38:59.252Z,15.10
2023-04-24T06:41:26.131Z,15.20
2023-04-24T06:43:52.921Z,15.30
2023-04-24T06:46:19.662Z,15.30
2023-04-24T06:48:46.646Z,15.40
2023-04-24T06:51:13.350Z,15.30
2023-04-24T06:53:40.085Z,15.40
2023-04-24T06:56:06.866Z,15.40
2023-04-24T06:58:33.823Z,15.40
2023-04-24T07:01:00.591Z,15.50
2023-04-24T07:03:27.483Z,15.60
2023-04-24T07:05:55.797Z,15.70
2023-04-24T07:08:23.089Z,15.80
2023-04-24T07:10:51.650Z,15.90
2023-04-24T07:13:18.570Z,15.90
2023-04-24T07:15:45.391Z,15.90
2023-04-24T07:18:12.170Z,15.90
2023-04-24T07:20:39.217Z,15.90
2023-04-24T07:23:05.895Z,15.90
2023-04-24T07:25:32.776Z,16.00
2023-04-24T07:27:59.862Z,16.10
2023-04-24T07:30:26.895Z,16.20
2023-04-24T07:32:53.631Z,16.30
2023-04-24T07:35:21.290Z,16.30
2023-04-24T07:37:48.373Z,16.40
2023-04-24T07:40:15.170Z,16.30
2023-04-24T07:42:42.585Z,16.30
2023-04-24T07:45:09.327Z,16.20
2023-04-24T07:47:37.453Z,16.00
2023-04-24T07:50:04.625Z,15.90
2023-04-24T07:52:31.491Z,16.00
2023-04-24T07:54:59.442Z,15.90
2023-04-24T07:57:26.913Z,16.10
2023-04-24T07:59:53.752Z,16.20
2023-04-24T08:02:21.016Z,15.90
2023-04-24T08:04:48.237Z,16.00
2023-04-24T08:07:15.294Z,16.20
2023-04-24T08:09:42.120Z,16.40
2023-04-24T08:12:09.040Z,16.70
2023-04-24T08:14:36.121Z,16.70
2023-04-24T08:17:04.274Z,16.90
2023-04-24T08:19:31.353Z,16.90
2023-04-24T08:21:58.082Z,17.00
2023-04-24T08:24:24.889Z,17.00
2023-04-24T08:26:52.809Z,17.10
2023-04-24T08:29:19.495Z,17.10
2023-04-24T08:31:46.257Z,17.20
2023-04-24T08:34:13.056Z,17.40
2023-04-24T08:36:47.220Z,17.50
2023-04-24T08:39:15.297Z,17.50
2023-04-24T08:41:46.703Z,17.50
2023-04-24T08:44:16.700Z,17.50
2023-04-24T08:46:48.646Z,17.60
2023-04-24T08:49:19.336Z,17.70
2023-04-24T08:51:48.265Z,17.80
2023-04-24T08:54:15.204Z,18.00
2023-04-24T08:56:45.905Z,18.00
2023-04-24T08:59:13.549Z,18.10
2023-04-24T09:01:41.578Z,18.00
2023-04-24T09:04:14.393Z,18.00
2023-04-24T09:06:42.809Z,18.00
2023-04-24T09:09:11.068Z,18.10
2023-04-24T09:11:38.291Z,18.20
2023-04-24T09:14:05.500Z,18.30
2023-04-24T09:16:36.531Z,18.10
2023-04-24T09:19:04.450Z,18.00
2023-04-24T09:21:35.337Z,17.80
2023-04-24T09:24:08.088Z,18.00
2023-04-24T09:26:37.232Z,18.20
2023-04-24T09:29:05.959Z,18.30
2023-04-24T09:31:33.610Z,18.60
2023-04-24T09:34:09.104Z,18.60
2023-04-24T09:36:39.990Z,18.60
2023-04-24T09:39:14.675Z,18.50
2023-04-24T09:41:53.928Z,18.60
2023-04-24T09:44:25.675Z,18.50
2023-04-24T09:46:57.737Z,18.50
2023-04-24T09:49:26.126Z,18.50
2023-04-24T09:51:53.084Z,18.40
2023-04-24T09:54:22.600Z,18.40
2023-04-24T09:56:51.186Z,18.50
2023-04-24T09:59:19.859Z,18.60
2023-04-24T10:01:46.951Z,18.70
2023-04-24T10:04:21.690Z,18.70
2023-04-24T10:06:49.980Z,18.90
2023-04-24T10:09:19.000Z,19.10
2023-04-24T10:11:47.889Z,19.10
2023-04-24T10:14:20.050Z,19.20
2023-04-24T10:16:47.936Z,19.30
2023-04-24T10:19:16.644Z,19.50
2023-04-24T10:21:47.731Z,19.60
2023-04-24T10:24:19.375Z,19.80
2023-04-24T10:26:49.204Z,19.80
2023-04-24T10:29:20.681Z,19.90
2023-04-24T10:31:47.956Z,20.00
2023-04-24T10:34:16.933Z,20.10
2023-04-24T10:36:49.066Z,20.30
2023-04-24T10:39:17.276Z,20.60
2023-04-24T10:41:44.208Z,20.50
2023-04-24T10:44:12.905Z,20.60
2023-04-24T10:46:43.516Z,20.80
2023-04-24T10:49:10.496Z,21.10
2023-04-24T10:51:51.868Z,21.10
2023-04-24T10:54:26.874Z,21.10
2023-04-24T10:56:54.473Z,21.20
2023-04-24T10:59:36.374Z,21.30
2023-04-24T11:02:03.494Z,21.00
2023-04-24T11:04:32.623Z,21.30
2023-04-24T11:06:59.550Z,21.50
2023-04-24T11:09:32.382Z,21.50
2023-04-24T11:12:11.730Z,22.00
2023-04-24T11:14:57.594Z,22.20
2023-04-24T11:17:39.198Z,22.10
2023-04-24T11:20:26.804Z,22.20
2023-04-24T11:22:56.403Z,22.10
2023-04-24T11:25:23.923Z,22.30
2023-04-24T11:27:51.317Z,22.40
2023-04-24T11:30:20.332Z,22.60
2023-04-24T11:32:52.528Z,22.40
2023-04-24T11:35:25.901Z,22.50
2023-04-24T11:38:18.653Z,22.90
2023-04-24T11:40:41.584Z,23.10
2023-04-24T11:43:10.515Z,23.20
2023-04-24T11:45:37.204Z,23.10
2023-04-24T11:48:04.704Z,23.00
2023-04-24T11:50:31.808Z,23.20
2023-04-24T11:52:58.743Z,23.50
2023-04-24T11:55:27.860Z,23.50
2023-04-24T11:58:00.574Z,23.50
2023-04-24T12:00:32.406Z,23.70
2023-04-24T12:03:10.676Z,24.10
2023-04-24T12:05:38.198Z,24.20
2023-04-24T12:08:05.963Z,24.30
2023-04-24T12:10:34.129Z,24.20
2023-04-24T12:13:01.355Z,24.20
2023-04-24T12:15:28.930Z,24.10
2023-04-24T12:17:57.112Z,24.50
2023-04-24T12:20:30.386Z,24.50
2023-04-24T12:22:58.855Z,24.90
2023-04-24T12:25:27.763Z,25.40
2023-04-24T12:27:56.493Z,25.50
2023-04-24T12:30:29.803Z,25.60
2023-04-24T12:32:59.230Z,26.10
2023-04-24T12:35:30.789Z,26.20
2023-04-24T12:38:05.926Z,26.20
2023-04-24T12:40:32.929Z,25.60
2023-04-24T12:42:59.786Z,25.80
2023-04-24T12:45:28.834Z,26.00
2023-04-24T12:47:56.010Z,26.20
2023-04-24T12:50:22.839Z,26.40
2023-04-24T12:52:49.519Z,26.90
2023-04-24T12:55:16.351Z,27.10
2023-04-24T12:57:43.169Z,27.30
2023-04-24T13:00:10.970Z,27.40
2023-04-24T13:02:38.293Z,27.80
2023-04-24T13:05:05.684Z,28.40
2023-04-24T13:07:32.444Z,28.40
2023-04-24T13:09:59.519Z,28.70
2023-04-24T13:12:26.693Z,29.60
2023-04-24T13:14:54.483Z,30.00
2023-04-24T13:17:21.522Z,30.80
2023-04-24T13:19:51.912Z,31.90
2023-04-24T13:22:22.028Z,32.50
2023-04-24T13:24:49.899Z,33.30
2023-04-24T13:27:17.279Z,34.50
2023-04-24T13:29:43.999Z,34.70
2023-04-24T13:32:11.283Z,35.50
2023-04-24T13:34:38.182Z,35.20
2023-04-24T13:37:05.883Z,35.00
2023-04-24T13:39:32.898Z,35.90
2023-04-24T13:42:00.000Z,36.50
2023-04-24T13:44:27.803Z,35.90
2023-04-24T13:46:57.693Z,36.00
2023-04-24T13:49:28.133Z,36.30
2023-04-24T13:51:56.228Z,36.40
2023-04-24T13:54:24.430Z,36.50
2023-04-24T13:56:51.843Z,35.90
2023-04-24T13:59:18.766Z,35.90
2023-04-24T14:01:46.229Z,35.30
2023-04-24T14:04:13.259Z,35.50
2023-04-24T14:06:40.357Z,35.10
2023-04-24T14:09:07.909Z,34.70
2023-04-24T14:11:35.348Z,32.70
2023-04-24T14:14:02.131Z,32.40
2023-04-24T14:16:29.708Z,33.10
2023-04-24T14:18:57.178Z,33.20
2023-04-24T14:21:23.932Z,32.60
2023-04-24T14:23:51.192Z,31.90
2023-04-24T14:26:18.035Z,31.40
2023-04-24T14:28:44.722Z,32.90
2023-04-24T14:31:11.537Z,33.80
2023-04-24T14:33:38.285Z,33.50
2023-04-24T14:36:06.574Z,32.80
2023-04-24T14:38:33.669Z,33.10
2023-04-24T14:43:30.093Z,33.20
2023-04-24T14:45:56.805Z,32.50
2023-04-24T14:48:23.478Z,32.20
2023-04-24T14:50:50.214Z,32.00
2023-04-24T14:53:17.360Z,32.00
2023-04-24T14:55:44.051Z,31.80
2023-04-24T14:58:10.839Z,31.20
2023-04-24T15:00:37.839Z,29.80
2023-04-24T15:03:05.166Z,29.50
2023-04-24T15:05:32.493Z,30.00
2023-04-24T15:07:59.405Z,30.30
2023-04-24T15:10:26.585Z,30.30
2023-04-24T15:12:53.402Z,31.00
2023-04-24T15:15:20.286Z,31.60
2023-04-24T15:17:47.217Z,32.20
2023-04-24T15:20:14.074Z,31.30
2023-04-24T15:22:40.880Z,31.60
2023-04-24T15:25:08.104Z,32.50
2023-04-24T15:27:47.291Z,32.50
2023-04-24T15:30:15.242Z,32.50
2023-04-24T15:32:42.096Z,33.20
2023-04-24T15:35:10.659Z,33.00
2023-04-24T15:37:39.068Z,32.10
2023-04-24T15:40:08.378Z,31.90
2023-04-24T15:42:36.193Z,32.00
2023-04-24T15:45:04.383Z,31.90
2023-04-24T15:47:31.366Z,31.60
2023-04-24T15:49:58.803Z,31.00
2023-04-24T15:52:25.822Z,30.60
2023-04-24T15:54:52.687Z,30.30
2023-04-24T15:57:19.631Z,29.50
2023-04-24T15:59:46.530Z,29.00
2023-04-24T16:02:21.347Z,28.80
2023-04-24T16:04:49.785Z,28.80
2023-04-24T16:07:20.417Z,28.30
2023-04-24T16:09:47.211Z,28.10
2023-04-24T16:12:14.568Z,28.10
2023-04-24T16:14:41.291Z,28.00
2023-04-24T16:17:07.998Z,28.20
2023-04-24T16:19:35.140Z,28.10
2023-04-24T16:22:03.238Z,28.10
2023-04-24T16:24:30.398Z,28.10
2023-04-24T16:26:57.326Z,27.90
2023-04-24T16:29:24.138Z,27.90
2023-04-24T16:31:51.023Z,27.70
2023-04-24T16:34:17.780Z,27.40
2023-04-24T16:36:44.538Z,27.50
2023-04-24T16:39:11.344Z,27.00
2023-04-24T16:41:38.173Z,26.70
2023-04-24T16:44:05.284Z,26.70
2023-04-24T16:46:32.091Z,26.80
2023-04-24T16:48:58.946Z,26.80
2023-04-24T16:51:26.597Z,26.70
2023-04-24T16:53:53.350Z,26.60
2023-04-24T16:56:20.089Z,26.40
2023-04-24T16:58:46.994Z,26.00
2023-04-24T17:01:13.887Z,25.50
2023-04-24T17:03:41.257Z,25.20
2023-04-24T17:06:08.700Z,24.90
2023-04-24T17:08:35.883Z,24.70
2023-04-24T17:11:02.737Z,24.60
2023-04-24T17:13:29.488Z,24.50
2023-04-24T17:15:56.239Z,24.40
2023-04-24T17:18:22.996Z,24.50
2023-04-24T17:20:51.321Z,24.30
2023-04-24T17:23:18.300Z,24.10
2023-04-24T17:25:44.987Z,23.90
2023-04-24T17:28:29.988Z,23.90
2023-04-24T17:31:00.410Z,23.80
2023-04-24T17:33:28.169Z,23.70
2023-04-24T17:35:56.150Z,23.60
2023-04-24T17:38:22.978Z,23.60
2023-04-24T17:40:53.274Z,23.60
2023-04-24T17:43:21.131Z,23.60
2023-04-24T17:45:53.401Z,23.70
2023-04-24T17:48:20.197Z,23.80
2023-04-24T17:50:46.935Z,23.80
2023-04-24T17:53:13.922Z,23.60
2023-04-24T17:55:43.416Z,23.60
2023-04-24T17:58:10.508Z,23.50
2023-04-24T18:00:37.396Z,23.40
2023-04-24T18:03:05.814Z,23.30
2023-04-24T18:05:37.169Z,23.30
2023-04-24T18:08:04.673Z,23.40
2023-04-24T18:10:33.071Z,23.40
2023-04-24T18:13:00.165Z,23.30
2023-04-24T18:15:26.994Z,23.30
2023-04-24T18:17:53.734Z,23.20
2023-04-24T18:20:21.255Z,23.10
2023-04-24T18:22:48.285Z,22.80
2023-04-24T18:25:15.556Z,22.70
2023-04-24T18:27:42.916Z,22.50
2023-04-24T18:30:14.204Z,22.30
2023-04-24T18:32:41.794Z,22.20
2023-04-24T18:35:09.315Z,22.00
2023-04-24T18:37:36.106Z,21.80
2023-04-24T18:40:03.635Z,21.60
2023-04-24T18:42:30.570Z,21.50
2023-04-24T18:45:01.288Z,21.50
2023-04-24T18:47:28.740Z,21.30
2023-04-24T18:49:55.758Z,21.20
2023-04-24T18:52:24.155Z,21.20
2023-04-24T18:54:51.065Z,21.30
2023-04-24T18:57:18.346Z,21.20
2023-04-24T18:59:45.297Z,21.20
2023-04-24T19:02:12.203Z,21.20
2023-04-24T19:04:39.150Z,21.20
2023-04-24T19:07:05.948Z,21.20
2023-04-24T19:09:32.612Z,21.20
2023-04-24T19:12:01.676Z,21.20
2023-04-24T19:14:28.716Z,21.30
2023-04-24T19:16:55.561Z,21.20
2023-04-24T19:19:23.828Z,21.00
2023-04-24T19:21:50.668Z,20.90
2023-04-24T19:24:19.002Z,20.90
2023-04-24T19:26:46.508Z,20.70
2023-04-24T19:29:13.445Z,20.60
2023-04-24T19:31:40.271Z,20.50
2023-04-24T19:34:07.000Z,20.50
2023-04-24T19:36:33.891Z,20.30
2023-04-24T19:39:00.986Z,20.10
2023-04-24T19:41:27.687Z,20.00
2023-04-24T19:43:54.477Z,20.00
2023-04-24T19:46:21.315Z,19.90
2023-04-24T19:48:48.490Z,20.00
2023-04-24T19:51:16.082Z,19.90
2023-04-24T19:53:43.422Z,19.80
2023-04-24T19:56:10.555Z,19.80
2023-04-24T19:58:37.316Z,19.70
2023-04-24T20:01:05.912Z,19.60
2023-04-24T20:03:34.312Z,19.60
2023-04-24T20:06:01.891Z,19.60
2023-04-24T20:08:28.654Z,19.50
2023-04-24T20:10:58.119Z,19.50
2023-04-24T20:13:27.560Z,19.60
2023-04-24T20:15:54.323Z,19.70
2023-04-24T20:18:21.439Z,19.60
2023-04-24T20:20:48.215Z,19.60
2023-04-24T20:23:15.014Z,19.70
2023-04-24T20:25:41.907Z,19.70
2023-04-24T20:28:08.670Z,19.60
2023-04-24T20:30:35.767Z,19.60
2023-04-24T20:33:03.460Z,19.70
2023-04-24T20:35:30.445Z,19.60
2023-04-24T20:37:57.322Z,19.50
2023-04-24T20:40:24.155Z,19.50
2023-04-24T20:42:51.215Z,19.60
2023-04-24T20:45:18.034Z,19.60
2023-04-24T20:47:44.950Z,19.50
2023-04-24T20:50:11.996Z,19.60
2023-04-24T20:52:38.729Z,19.40
2023-04-24T20:55:06.824Z,19.50
2023-04-24T20:57:33.673Z,19.30
2023-04-24T21:00:00.478Z,19.40
2023-04-24T21:02:27.383Z,19.30
2023-04-24T21:04:54.138Z,19.30
2023-04-24T21:07:20.899Z,19.30
2023-04-24T21:09:47.825Z,19.10
2023-04-24T21:12:14.536Z,19.10
2023-04-24T21:14:41.284Z,19.10
2023-04-24T21:17:08.124Z,18.90
2023-04-24T21:19:34.911Z,18.80
2023-04-24T21:22:01.609Z,18.60
2023-04-24T21:24:28.444Z,18.50
2023-04-24T21:26:55.226Z,18.40
2023-04-24T21:29:22.195Z,18.50
2023-04-24T21:31:49.078Z,18.40
2023-04-24T21:34:16.013Z,18.10
2023-04-24T21:36:42.667Z,18.00
2023-04-24T21:39:09.352Z,18.00
2023-04-24T21:41:36.030Z,17.90
2023-04-24T21:44:02.729Z,17.80
2023-04-24T21:46:29.542Z,17.70
2023-04-24T21:48:56.282Z,17.60
2023-04-24T21:51:23.056Z,17.50
2023-04-24T21:53:50.317Z,17.30
2023-04-24T21:56:17.505Z,17.30
2023-04-24T21:58:45.229Z,17.30
2023-04-24T22:01:12.158Z,17.20
2023-04-24T22:03:39.139Z,17.20
2023-04-24T22:06:06.136Z,17.10
2023-04-24T22:08:32.988Z,17.10
2023-04-24T22:10:59.986Z,17.00
2023-04-24T22:13:27.669Z,16.90
2023-04-24T22:15:54.727Z,16.90
2023-04-24T22:18:24.557Z,16.90
2023-04-24T22:20:53.020Z,16.90
2023-04-24T22:23:20.567Z,16.80
2023-04-24T22:25:47.305Z,16.80
2023-04-24T22:28:13.917Z,16.70
2023-04-24T22:30:41.308Z,16.60
2023-04-24T22:33:08.449Z,16.50
2023-04-24T22:35:37.228Z,16.40
2023-04-24T22:38:03.912Z,16.30
2023-04-24T22:40:31.246Z,16.30
2023-04-24T22:42:57.916Z,16.20
2023-04-24T22:45:24.705Z,16.20
2023-04-24T22:47:51.531Z,16.20
2023-04-24T22:50:20.354Z,16.10
2023-04-24T22:52:47.681Z,16.00
2023-04-24T22:55:14.332Z,16.00
2023-04-24T22:57:41.268Z,16.00
2023-04-24T23:00:11.479Z,16.00
2023-04-24T23:02:40.565Z,16.00
2023-04-24T23:05:08.682Z,16.00
2023-04-24T23:07:37.650Z,16.00
2023-04-24T23:10:05.952Z,16.00
2023-04-24T23:12:32.790Z,16.00
2023-04-24T23:15:01.097Z,16.00
2023-04-24T23:17:27.796Z,15.90
2023-04-24T23:19:54.617Z,15.90
2023-04-24T23:22:21.709Z,15.80
2023-04-24T23:24:48.357Z,15.80
2023-04-24T23:27:15.232Z,15.80
2023-04-24T23:29:42.026Z,15.70
2023-04-24T23:32:08.809Z,15.80
2023-04-24T23:34:38.047Z,15.80
2023-04-24T23:37:06.162Z,15.80
2023-04-24T23:39:33.131Z,15.80
2023-04-24T23:42:02.902Z,15.80
2023-04-24T23:44:30.395Z,15.70
2023-04-24T23:46:57.469Z,15.70
2023-04-24T23:49:24.312Z,15.70
2023-04-24T23:51:52.173Z,15.70
2023-04-24T23:54:19.365Z,15.70
2023-04-24T23:56:47.847Z,15.60
2023-04-24T23:59:15.216Z,15.60
